Time;durP1;ratioP1;P1;durP2;ratioP2;P2;SDS_P1;SDS_P2;PMS_P1;PMS_P2;Temp;Humidity;BMP_temperature;BMP_pressure;BME280_temperature;BME280_humidity;BME280_pressure;Samples;Min_cycle;Max_cycle;Signal;HPM_P1;HPM_P2
2021/09/22 00:00:39;;;;;;;7.40;5.38;;;;;;;29.45;22.77;98803.25;5067500;28;20077;-82
2021/09/22 00:03:05;;;;;;;7.25;4.32;;;;;;;29.33;23.48;98794.31;5074105;28;20024;-82
2021/09/22 00:05:31;;;;;;;5.35;4.07;;;;;;;29.60;23.03;98788.16;5073738;28;20052;-81
2021/09/22 00:07:58;;;;;;;5.82;4.00;;;;;;;29.90;22.61;98787.56;5073575;28;20095;-82
2021/09/22 00:10:24;;;;;;;8.18;4.55;;;;;;;30.09;22.17;98782.84;5073885;28;20036;-83
2021/09/22 00:12:51;;;;;;;6.72;4.75;;;;;;;29.82;22.43;98788.28;5072213;28;20032;-82
2021/09/22 00:15:21;;;;;;;10.15;5.25;;;;;;;29.72;22.54;98778.84;5072673;28;20104;-82
2021/09/22 00:17:47;;;;;;;6.35;4.63;;;;;;;29.83;22.65;98767.19;5072383;28;20487;-82
2021/09/22 00:20:15;;;;;;;5.68;3.30;;;;;;;29.90;22.57;98764.09;5072034;28;20036;-83
2021/09/22 00:22:42;;;;;;;6.10;3.90;;;;;;;30.00;22.12;98769.41;5073817;28;20460;-82
2021/09/22 00:25:10;;;;;;;8.25;5.20;;;;;;;29.91;22.49;98771.38;5073111;28;20036;-82
2021/09/22 00:27:37;;;;;;;5.57;3.65;;;;;;;29.79;22.54;98769.34;5073544;28;20488;-82
2021/09/22 00:30:05;;;;;;;4.68;3.85;;;;;;;29.67;22.60;98767.31;5071203;28;20029;-82
2021/09/22 00:32:31;;;;;;;3.75;3.33;;;;;;;29.53;22.68;98774.25;5072487;28;20040;-82
2021/09/22 00:34:57;;;;;;;5.35;3.72;;;;;;;29.50;22.67;98763.06;5072961;28;20036;-81
2021/09/22 00:37:23;;;;;;;4.00;3.42;;;;;;;29.42;22.81;98760.47;5073650;28;20036;-82
2021/09/22 00:39:49;;;;;;;6.07;4.03;;;;;;;29.57;22.84;98755.09;5069144;28;20033;-82
2021/09/22 00:42:15;;;;;;;5.07;4.20;;;;;;;29.58;22.79;98753.06;5072118;28;20033;-82
2021/09/22 00:44:51;;;;;;;4.85;3.30;;;;;;;29.42;22.79;98756.84;5070874;28;20040;-82
2021/09/22 00:47:17;;;;;;;5.97;3.80;;;;;;;29.31;22.79;98748.69;5069942;28;20035;-82
2021/09/22 00:49:43;;;;;;;5.38;3.00;;;;;;;29.46;22.77;98745.38;5072482;28;20090;-82
2021/09/22 00:52:12;;;;;;;4.70;3.08;;;;;;;29.59;22.76;98741.31;5074152;28;20499;-82
2021/09/22 00:54:38;;;;;;;4.85;2.85;;;;;;;29.69;22.55;98742.16;5074218;28;20036;-83
2021/09/22 00:57:05;;;;;;;4.68;3.42;;;;;;;29.62;22.69;98733.91;5073751;28;20073;-82
2021/09/22 00:59:31;;;;;;;3.55;2.97;;;;;;;29.64;22.67;98737.88;5073953;28;20036;-82
2021/09/22 01:01:59;;;;;;;3.67;2.85;;;;;;;29.53;22.72;98736.66;5067042;28;20041;-82
2021/09/22 01:04:25;;;;;;;3.33;2.72;;;;;;;29.33;22.90;98734.09;5073644;28;20032;-82
2021/09/22 01:06:51;;;;;;;4.25;3.30;;;;;;;29.34;22.91;98722.31;5072969;28;20037;-82
2021/09/22 01:09:17;;;;;;;3.45;2.97;;;;;;;29.40;23.14;98719.72;5074158;28;20028;-82
2021/09/22 01:11:44;;;;;;;5.75;3.35;;;;;;;29.26;23.18;98721.00;5074729;28;20403;-82
2021/09/22 01:14:10;;;;;;;4.53;2.67;;;;;;;29.19;23.39;98720.41;5072581;28;20502;-82
2021/09/22 01:16:45;;;;;;;4.95;3.22;;;;;;;28.98;23.68;98723.91;5070905;28;20492;-83
2021/09/22 01:19:12;;;;;;;3.30;2.40;;;;;;;29.09;23.63;98713.03;5070509;28;20487;-82
2021/09/22 01:21:43;;;;;;;4.13;3.33;;;;;;;29.14;23.27;98704.78;5073446;28;20036;-82
2021/09/22 01:24:09;;;;;;;4.80;2.80;;;;;;;29.22;23.37;98700.50;5072729;28;20476;-82
2021/09/22 01:26:35;;;;;;;3.40;2.53;;;;;;;29.51;23.31;98699.53;5063519;28;20035;-83
2021/09/22 01:29:02;;;;;;;3.67;3.25;;;;;;;29.66;22.66;98692.16;5073109;28;20060;-82
2021/09/22 01:31:28;;;;;;;3.60;2.65;;;;;;;29.72;22.71;98696.75;5073027;28;20450;-83
2021/09/22 01:33:59;;;;;;;4.75;3.25;;;;;;;29.30;23.02;98693.38;5073119;28;20041;-83
2021/09/22 01:36:25;;;;;;;;;;;;;;;28.94;23.71;98683.66;5074173;28;20456;-82
2021/09/22 01:38:51;;;;;;;4.95;2.60;;;;;;;28.84;23.97;98687.59;5073308;28;19960;-82
2021/09/22 01:41:17;;;;;;;4.60;3.28;;;;;;;28.92;23.82;98686.91;5072982;28;20113;-82
2021/09/22 01:43:43;;;;;;;5.30;3.38;;;;;;;28.96;23.85;98681.97;5070041;28;20484;-82
2021/09/22 01:46:11;;;;;;;3.80;2.40;;;;;;;29.19;23.66;98678.78;5072316;28;20508;-83
2021/09/22 01:48:37;;;;;;;5.25;3.25;;;;;;;28.64;24.12;98676.50;5073094;28;20365;-83
2021/09/22 01:51:06;;;;;;;3.85;2.85;;;;;;;28.53;24.11;98667.53;5071867;28;20119;-82
2021/09/22 01:53:33;;;;;;;4.05;2.40;;;;;;;28.76;24.24;98672.91;5078961;28;20596;-83
2021/09/22 01:56:01;;;;;;;3.25;2.55;;;;;;;29.11;23.77;98662.47;5071967;28;20032;-83
2021/09/22 01:58:28;;;;;;;2.60;2.13;;;;;;;29.54;23.25;98656.19;5072301;28;20117;-82
2021/09/22 02:00:57;;;;;;;3.72;2.33;;;;;;;29.69;22.94;98658.03;5071959;28;20045;-82
2021/09/22 02:03:23;;;;;;;3.42;2.63;;;;;;;29.74;22.81;98645.34;5069722;28;20059;-82
2021/09/22 02:05:49;;;;;;;4.32;2.47;;;;;;;28.84;23.94;98654.47;5069399;28;20035;-82
2021/09/22 02:08:15;;;;;;;4.63;2.85;;;;;;;27.81;25.11;98662.38;5072220;28;20037;-82
2021/09/22 02:10:41;;;;;;;4.85;3.55;;;;;;;27.03;26.36;98666.41;5072658;28;20400;-82
2021/09/22 02:13:08;;;;;;;6.47;4.22;;;;;;;26.47;27.05;98660.06;5071598;28;20036;-82
2021/09/22 02:15:34;;;;;;;6.15;3.67;;;;;;;25.62;28.26;98658.19;5072967;28;20032;-81
2021/09/22 02:18:01;;;;;;;4.78;3.20;;;;;;;24.88;29.35;98662.25;5072063;28;20516;-82
2021/09/22 02:20:28;;;;;;;3.53;2.72;;;;;;;24.94;29.44;98659.78;5063486;28;20560;-83
2021/09/22 02:22:54;;;;;;;4.28;3.15;;;;;;;25.49;28.45;98648.00;5072593;28;20047;-82
2021/09/22 02:25:20;;;;;;;6.03;3.42;;;;;;;25.57;28.60;98652.28;5068288;28;20166;-82
2021/09/22 02:27:47;;;;;;;4.22;3.35;;;;;;;25.86;28.17;98648.47;5068363;28;20040;-83
2021/09/22 02:30:19;;;;;;;3.97;3.05;;;;;;;26.29;27.45;98641.97;5069985;28;20488;-83
2021/09/22 02:32:45;;;;;;;2.92;2.50;;;;;;;25.94;27.71;98635.06;5071433;28;20032;-82
2021/09/22 02:35:12;;;;;;;4.20;3.08;;;;;;;25.24;28.85;98640.78;5063184;28;20033;-82
2021/09/22 02:37:39;;;;;;;4.35;2.85;;;;;;;25.30;28.80;98644.69;5064365;28;20086;-82
2021/09/22 02:40:09;;;;;;;2.97;2.38;;;;;;;26.02;27.76;98640.09;5072081;28;20033;-81
2021/09/22 02:42:35;;;;;;;4.57;2.40;;;;;;;26.08;27.69;98640.38;5072041;28;20032;-83
2021/09/22 02:45:02;;;;;;;2.50;2.10;;;;;;;26.46;27.08;98641.59;5071900;28;20658;-82
2021/09/22 02:47:28;;;;;;;2.45;2.15;;;;;;;25.70;27.99;98637.13;5071825;28;20043;-82
2021/09/22 02:49:54;;;;;;;3.35;2.20;;;;;;;26.63;27.17;98633.94;5072519;28;20463;-82
2021/09/22 02:52:20;;;;;;;3.22;2.65;;;;;;;26.92;26.27;98634.88;5071808;28;20507;-82
2021/09/22 02:54:46;;;;;;;3.25;2.53;;;;;;;25.94;27.90;98635.84;5068602;28;20017;-83
2021/09/22 02:57:12;;;;;;;2.85;2.42;;;;;;;26.46;27.18;98637.97;5071447;28;20066;-82
2021/09/22 02:59:39;;;;;;;3.95;2.95;;;;;;;26.25;27.31;98624.38;5070398;28;20028;-82
2021/09/22 03:02:05;;;;;;;2.95;2.30;;;;;;;26.02;27.62;98623.19;5069833;28;20032;-83
2021/09/22 03:04:31;;;;;;;4.18;3.03;;;;;;;26.31;27.36;98617.78;5073355;28;20036;-82
2021/09/22 03:06:57;;;;;;;3.00;2.20;;;;;;;26.27;27.49;98619.09;5072130;28;20041;-82
2021/09/22 03:09:24;;;;;;;4.28;2.80;;;;;;;26.06;27.49;98618.31;5071709;28;20163;-82
2021/09/22 03:11:51;;;;;;;2.88;2.20;;;;;;;25.22;28.67;98623.56;5070954;28;20040;-82
2021/09/22 03:14:17;;;;;;;3.70;2.60;;;;;;;25.85;27.72;98618.75;5070680;28;20387;-81
2021/09/22 03:16:43;;;;;;;3.20;2.55;;;;;;;26.17;27.07;98623.72;5072092;28;20032;-82
2021/09/22 03:19:09;;;;;;;2.53;1.90;;;;;;;26.87;26.32;98628.97;5069612;28;20078;-81
2021/09/22 03:21:35;;;;;;;2.03;1.85;;;;;;;25.90;27.10;98612.63;5071853;28;20043;-81
2021/09/22 03:24:01;;;;;;;2.60;2.20;;;;;;;25.57;27.54;98608.06;5070942;28;20117;-81
2021/09/22 03:26:29;;;;;;;4.03;2.58;;;;;;;25.66;27.01;98619.53;5066910;28;20064;-80
2021/09/22 03:28:55;;;;;;;2.38;1.73;;;;;;;25.36;27.47;98614.88;5071542;28;20066;-81
2021/09/22 03:31:21;;;;;;;3.15;2.28;;;;;;;24.99;27.66;98611.53;5073298;28;20089;-82
2021/09/22 03:33:47;;;;;;;2.65;2.20;;;;;;;24.05;29.50;98620.91;5075146;28;20032;-82
2021/09/22 03:36:13;;;;;;;3.63;2.10;;;;;;;25.30;27.33;98610.94;5075945;28;20618;-81
2021/09/22 03:38:40;;;;;;;1.70;1.60;;;;;;;25.48;27.15;98610.66;5068640;28;20089;-81
2021/09/22 03:41:06;;;;;;;1.98;1.50;;;;;;;26.18;26.42;98610.44;5075147;28;20037;-81
2021/09/22 03:43:32;;;;;;;3.00;2.28;;;;;;;25.41;27.34;98617.16;5074285;28;20078;-81
2021/09/22 03:45:58;;;;;;;2.83;1.90;;;;;;;25.44;27.46;98621.16;5073894;28;20115;-82
2021/09/22 03:48:24;;;;;;;2.90;2.15;;;;;;;25.39;27.41;98616.81;5073284;28;20048;-82
2021/09/22 03:50:50;;;;;;;3.30;1.85;;;;;;;26.03;26.74;98616.34;5073824;28;20024;-83
2021/09/22 03:53:19;;;;;;;3.70;2.22;;;;;;;26.02;26.61;98608.34;5071357;28;20124;-82
2021/09/22 03:55:46;;;;;;;2.47;2.13;;;;;;;25.30;27.45;98615.78;5069832;28;20571;-81
2021/09/22 03:58:12;;;;;;;6.20;2.45;;;;;;;25.09;27.88;98613.34;5064446;28;20071;-82
2021/09/22 04:00:38;;;;;;;5.97;3.47;;;;;;;26.07;26.59;98605.81;5069520;28;20037;-82
2021/09/22 04:03:05;;;;;;;2.95;2.05;;;;;;;25.07;28.10;98608.16;5069751;28;20112;-82
2021/09/22 04:05:31;;;;;;;3.67;2.33;;;;;;;25.67;27.26;98609.88;5073014;28;20032;-81
2021/09/22 04:07:57;;;;;;;5.40;2.92;;;;;;;25.63;26.81;98611.16;5068766;28;20050;-82
2021/09/22 04:10:23;;;;;;;2.08;1.60;;;;;;;24.94;28.19;98615.63;5070276;28;20040;-82
2021/09/22 04:12:49;;;;;;;3.83;2.38;;;;;;;25.16;27.70;98613.22;5071225;28;20037;-82
2021/09/22 04:15:15;;;;;;;3.35;2.13;;;;;;;25.58;27.09;98606.06;5072732;28;20060;-83
2021/09/22 04:17:42;;;;;;;5.05;2.28;;;;;;;26.15;26.35;98609.31;5072582;28;20058;-82
2021/09/22 04:20:08;;;;;;;3.70;2.00;;;;;;;26.42;25.82;98611.94;5072239;28;20036;-82
2021/09/22 04:22:35;;;;;;;3.30;2.17;;;;;;;26.77;25.46;98604.69;5074019;28;20064;-81
2021/09/22 04:25:03;;;;;;;5.57;2.35;;;;;;;26.52;25.83;98599.59;5072571;28;20123;-82
2021/09/22 04:27:29;;;;;;;2.97;2.10;;;;;;;26.31;25.96;98608.53;5073576;28;20422;-83
2021/09/22 04:29:55;;;;;;;3.70;2.60;;;;;;;26.31;25.64;98609.34;5067560;28;20800;-82
2021/09/22 04:32:21;;;;;;;1.70;1.60;;;;;;;26.73;25.33;98613.19;5069065;28;20032;-83
2021/09/22 04:34:47;;;;;;;3.85;1.60;;;;;;;27.09;25.29;98613.13;5072307;28;20032;-80
2021/09/22 04:37:13;;;;;;;4.45;1.80;;;;;;;27.14;25.02;98606.97;5073321;28;20028;-81
2021/09/22 04:39:40;;;;;;;2.38;2.00;;;;;;;27.26;24.58;98606.22;5072738;28;20029;-81
2021/09/22 04:42:06;;;;;;;1.98;1.60;;;;;;;27.53;24.51;98615.19;5069794;28;20032;-81
2021/09/22 04:44:32;;;;;;;2.45;1.65;;;;;;;27.43;24.39;98610.63;5073504;28;20127;-81
2021/09/22 04:46:58;;;;;;;2.30;1.70;;;;;;;27.36;24.98;98605.13;5070853;28;20040;-81
2021/09/22 04:49:24;;;;;;;3.83;1.98;;;;;;;26.88;24.97;98610.84;5079316;28;20036;-81
2021/09/22 04:51:50;;;;;;;2.80;1.58;;;;;;;27.07;25.23;98612.78;5074222;28;20075;-81
2021/09/22 04:54:16;;;;;;;1.67;1.40;;;;;;;27.08;24.88;98609.50;5073662;28;20041;-81
2021/09/22 04:56:42;;;;;;;3.63;1.50;;;;;;;26.77;25.34;98610.31;5072866;28;20039;-80
2021/09/22 04:59:08;;;;;;;1.92;1.73;;;;;;;26.74;25.48;98614.78;5073639;28;20495;-80
2021/09/22 05:01:34;;;;;;;2.35;1.65;;;;;;;27.50;24.54;98613.25;5071327;28;20063;-81
2021/09/22 05:04:00;;;;;;;2.83;1.80;;;;;;;27.23;24.56;98607.13;5073632;28;20043;-81
2021/09/22 05:06:26;;;;;;;3.15;1.98;;;;;;;27.24;24.57;98611.50;5073426;28;20108;-81
2021/09/22 05:08:53;;;;;;;4.10;2.00;;;;;;;27.29;24.93;98608.16;5072612;28;20060;-80
2021/09/22 05:11:19;;;;;;;3.20;2.05;;;;;;;27.34;24.95;98627.34;5073487;28;20036;-80
2021/09/22 05:13:45;;;;;;;2.60;1.60;;;;;;;27.44;24.35;98623.50;5073619;28;20036;-79
2021/09/22 05:16:11;;;;;;;2.17;1.60;;;;;;;26.98;25.04;98632.34;5072524;28;20506;-80
2021/09/22 05:18:37;;;;;;;2.85;1.95;;;;;;;27.27;24.98;98641.63;5073351;28;20040;-83
2021/09/22 05:21:03;;;;;;;2.25;1.60;;;;;;;27.40;24.60;98632.03;5074126;28;20033;-80
2021/09/22 05:23:29;;;;;;;3.13;1.88;;;;;;;27.23;25.02;98632.50;5065525;28;20064;-80
2021/09/22 05:25:56;;;;;;;2.42;1.67;;;;;;;27.23;25.04;98640.94;5073287;28;20404;-80
2021/09/22 05:28:22;;;;;;;3.38;2.20;;;;;;;26.85;25.17;98640.69;5073537;28;20051;-81
2021/09/22 05:30:48;;;;;;;2.72;2.15;;;;;;;26.71;25.61;98644.63;5073916;28;20044;-81
2021/09/22 05:33:14;;;;;;;3.35;2.17;;;;;;;26.61;25.84;98644.84;5072881;28;20070;-81
2021/09/22 05:35:40;;;;;;;3.80;2.47;;;;;;;26.46;25.86;98641.59;5072829;28;20029;-81
2021/09/22 05:38:06;;;;;;;3.13;2.05;;;;;;;26.54;25.67;98643.00;5071909;28;20506;-80
2021/09/22 05:40:33;;;;;;;4.38;2.15;;;;;;;26.64;25.67;98646.81;5059771;28;20075;-81
2021/09/22 05:42:59;;;;;;;3.65;2.92;;;;;;;27.34;24.83;98639.44;5073758;28;20039;-81
2021/09/22 05:45:26;;;;;;;3.45;2.22;;;;;;;27.57;24.82;98643.28;5073688;28;20485;-80
2021/09/22 05:47:52;;;;;;;2.75;2.45;;;;;;;26.96;25.12;98652.47;5073021;28;20076;-81
2021/09/22 05:50:18;;;;;;;2.50;1.80;;;;;;;26.53;26.17;98649.88;5072628;28;20392;-81
2021/09/22 05:52:44;;;;;;;4.65;3.53;;;;;;;26.75;25.53;98650.19;5072883;28;20080;-81
2021/09/22 05:55:10;;;;;;;3.38;2.30;;;;;;;26.58;26.05;98654.19;5072852;28;20081;-81
2021/09/22 05:57:36;;;;;;;5.22;3.25;;;;;;;26.35;26.25;98646.66;5072907;28;20043;-81
2021/09/22 06:00:04;;;;;;;5.90;3.45;;;;;;;26.15;26.68;98645.88;5072611;28;20028;-82
2021/09/22 06:02:30;;;;;;;3.55;2.65;;;;;;;25.98;26.98;98653.44;5069824;28;20033;-81
2021/09/22 06:04:56;;;;;;;3.95;2.50;;;;;;;26.73;25.90;98650.59;5069018;28;20062;-81
2021/09/22 06:07:22;;;;;;;3.72;2.75;;;;;;;26.47;26.24;98651.59;5073072;28;20035;-81
2021/09/22 06:09:48;;;;;;;4.13;2.50;;;;;;;26.55;26.39;98650.22;5073335;28;20123;-81
2021/09/22 06:12:14;;;;;;;4.28;3.00;;;;;;;26.83;25.78;98659.25;5072130;28;20040;-81
2021/09/22 06:14:40;;;;;;;4.05;3.10;;;;;;;26.22;26.50;98651.38;5073477;28;20075;-82
2021/09/22 06:17:06;;;;;;;3.92;2.88;;;;;;;25.71;27.36;98646.38;5069973;28;20044;-82
2021/09/22 06:19:32;;;;;;;5.05;3.22;;;;;;;25.97;26.90;98659.50;5066662;28;20498;-81
2021/09/22 06:21:59;;;;;;;5.07;3.00;;;;;;;26.28;26.63;98652.44;5066429;28;20029;-82
2021/09/22 06:24:25;;;;;;;3.78;2.80;;;;;;;26.58;26.32;98660.59;5053438;28;20041;-81
2021/09/22 06:26:52;;;;;;;4.05;3.10;;;;;;;26.92;26.04;98656.63;5059166;28;20060;-81
2021/09/22 06:29:18;;;;;;;3.83;2.58;;;;;;;26.69;25.84;98661.16;5073211;28;20036;-81
2021/09/22 06:31:44;;;;;;;3.22;2.42;;;;;;;26.76;25.84;98665.06;5071654;28;20058;-81
2021/09/22 06:34:10;;;;;;;6.63;2.70;;;;;;;26.61;26.08;98661.75;5072867;28;20037;-81
2021/09/22 06:36:36;;;;;;;5.30;3.40;;;;;;;27.38;25.27;98676.03;5084296;28;20028;-81
2021/09/22 06:39:03;;;;;;;3.10;2.80;;;;;;;26.79;25.88;98673.44;5091632;28;20043;-81
2021/09/22 06:41:30;;;;;;;3.78;2.47;;;;;;;26.78;26.19;98666.22;5072569;28;20571;-82
2021/09/22 06:43:57;;;;;;;4.28;3.45;;;;;;;27.08;25.54;98667.91;5073089;28;20400;-81
2021/09/22 06:46:23;;;;;;;4.93;3.95;;;;;;;26.96;25.64;98668.59;5071993;28;20036;-81
2021/09/22 06:48:49;;;;;;;3.15;2.50;;;;;;;27.45;25.59;98661.72;5073576;28;20067;-82
2021/09/22 06:51:18;;;;;;;3.80;2.65;;;;;;;27.61;25.09;98670.16;5073167;28;20384;-82
2021/09/22 06:53:47;;;;;;;5.47;2.88;;;;;;;27.82;24.65;98672.41;5072744;28;20539;-81
2021/09/22 06:56:13;;;;;;;4.50;2.90;;;;;;;27.70;24.65;98664.66;5072924;28;20035;-81
2021/09/22 06:58:39;;;;;;;3.92;3.30;;;;;;;28.01;24.66;98670.69;5056969;28;20044;-81
2021/09/22 07:01:06;;;;;;;4.97;2.92;;;;;;;27.74;24.54;98673.84;5066480;28;20392;-84
2021/09/22 07:03:32;;;;;;;4.13;2.65;;;;;;;27.87;24.97;98673.88;5072235;28;20400;-82
2021/09/22 07:05:58;;;;;;;3.65;2.55;;;;;;;28.30;24.57;98673.50;5075540;28;20036;-81
2021/09/22 07:08:25;;;;;;;4.68;2.80;;;;;;;28.30;24.28;98671.47;5077365;28;20032;-81
2021/09/22 07:10:51;;;;;;;4.82;3.05;;;;;;;28.45;24.17;98672.59;5077409;28;20111;-82
2021/09/22 07:13:20;;;;;;;4.88;3.33;;;;;;;28.06;24.47;98676.59;5076059;28;20039;-82
2021/09/22 07:15:47;;;;;;;3.47;2.85;;;;;;;28.15;24.51;98680.78;5075876;28;20035;-81
2021/09/22 07:18:15;;;;;;;4.47;2.35;;;;;;;27.67;25.09;98678.88;5076507;28;20025;-81
2021/09/22 07:20:42;;;;;;;2.25;2.05;;;;;;;28.40;24.27;98684.47;5071594;28;20029;-82
2021/09/22 07:23:08;;;;;;;2.97;2.40;;;;;;;28.54;24.15;98684.03;5055312;28;20111;-82
2021/09/22 07:25:34;;;;;;;3.25;2.40;;;;;;;28.04;24.38;98683.94;5055506;28;20045;-83
2021/09/22 07:28:00;;;;;;;3.38;2.70;;;;;;;27.99;24.48;98688.09;5056633;28;20059;-82
2021/09/22 07:30:26;;;;;;;2.97;2.53;;;;;;;27.46;25.27;98691.53;5064480;28;20027;-82
2021/09/22 07:32:52;;;;;;;2.97;2.53;;;;;;;27.87;25.14;98688.00;5096224;28;20077;-82
2021/09/22 07:35:19;;;;;;;4.30;2.55;;;;;;;28.03;24.44;98693.63;5086981;28;20036;-82
2021/09/22 07:37:45;;;;;;;3.05;2.75;;;;;;;27.87;24.68;98694.44;5076367;28;20032;-81
2021/09/22 07:40:12;;;;;;;2.72;1.85;;;;;;;27.39;25.73;98694.53;5075067;28;20032;-81
2021/09/22 07:42:38;;;;;;;3.80;2.58;;;;;;;27.65;25.28;98692.66;5076313;28;20058;-81
2021/09/22 07:45:05;;;;;;;5.15;3.20;;;;;;;27.74;25.01;98699.25;5074188;28;20506;-81
2021/09/22 07:47:31;;;;;;;3.33;2.20;;;;;;;28.18;24.69;98703.28;5073146;28;20037;-82
2021/09/22 07:49:57;;;;;;;6.15;3.63;;;;;;;27.93;24.68;98691.88;5073112;28;20040;-81
2021/09/22 07:52:23;;;;;;;4.03;3.25;;;;;;;27.86;25.11;98701.34;5067649;28;20511;-82
2021/09/22 07:54:49;;;;;;;2.80;2.38;;;;;;;27.46;25.56;98708.47;5067391;28;20017;-82
2021/09/22 07:57:17;;;;;;;3.00;2.38;;;;;;;27.80;24.90;98710.78;5075889;28;20115;-82
2021/09/22 07:59:44;;;;;;;2.90;2.50;;;;;;;27.81;24.98;98707.53;5074281;28;20557;-81
2021/09/22 08:02:10;;;;;;;3.03;2.42;;;;;;;28.36;24.51;98714.06;5074912;28;20154;-82
2021/09/22 08:04:36;;;;;;;4.30;2.38;;;;;;;28.21;24.81;98712.91;5075320;28;20068;-82
2021/09/22 08:07:02;;;;;;;3.83;2.58;;;;;;;28.36;24.97;98716.88;5076162;28;20106;-82
2021/09/22 08:09:30;;;;;;;4.25;2.42;;;;;;;28.72;24.24;98718.25;5071180;28;20119;-82
2021/09/22 08:11:56;;;;;;;4.68;2.75;;;;;;;28.54;24.34;98717.16;5076019;28;20024;-82
2021/09/22 08:14:29;;;;;;;4.18;2.63;;;;;;;27.53;25.78;98728.03;5075142;28;20035;-82
2021/09/22 08:16:58;;;;;;;2.97;2.65;;;;;;;27.42;25.93;98727.50;5075402;28;20082;-82
2021/09/22 08:19:24;;;;;;;4.88;2.78;;;;;;;27.33;26.07;98730.91;5075724;28;20040;-82
2021/09/22 08:21:51;;;;;;;4.18;3.15;;;;;;;26.82;26.88;98726.09;5074282;28;20476;-82
2021/09/22 08:24:17;;;;;;;5.43;3.05;;;;;;;26.58;27.08;98730.25;5074177;28;20508;-82
2021/09/22 08:26:43;;;;;;;3.47;2.40;;;;;;;25.98;28.04;98737.06;5074401;28;20044;-81
2021/09/22 08:29:09;;;;;;;3.30;2.60;;;;;;;24.58;29.98;98750.13;5075647;28;20112;-81
2021/09/22 08:31:35;;;;;;;3.92;2.72;;;;;;;22.76;32.90;98752.63;5074570;28;20120;-82
2021/09/22 08:34:01;;;;;;;2.63;2.08;;;;;;;22.25;33.21;98750.47;5075245;28;20033;-82
2021/09/22 08:36:27;;;;;;;2.58;2.25;;;;;;;20.70;36.41;98761.69;5075600;28;20078;-81
2021/09/22 08:38:53;;;;;;;2.70;2.28;;;;;;;19.41;38.92;98758.63;5075349;28;20067;-82
2021/09/22 08:41:20;;;;;;;2.00;1.73;;;;;;;19.41;38.75;98752.25;5074886;28;20086;-82
2021/09/22 08:43:46;;;;;;;2.85;2.00;;;;;;;21.43;35.69;98749.81;5073119;28;20151;-81
2021/09/22 08:46:16;;;;;;;2.38;1.55;;;;;;;20.68;37.19;98756.50;5068215;28;20024;-81
2021/09/22 08:48:42;;;;;;;2.05;1.60;;;;;;;23.31;32.55;98748.63;5074452;28;20032;-82
2021/09/22 08:51:08;;;;;;;2.13;1.50;;;;;;;23.07;32.16;98754.44;5075184;28;20033;-81
2021/09/22 08:53:34;;;;;;;3.05;1.58;;;;;;;22.13;34.33;98750.91;5071509;28;20064;-82
2021/09/22 08:56:02;;;;;;;1.27;1.17;;;;;;;22.58;33.19;98761.13;5074083;28;20032;-81
2021/09/22 08:58:28;;;;;;;2.22;1.30;;;;;;;21.29;35.42;98756.22;5074993;28;20369;-81
2021/09/22 09:01:14;;;;;;;1.83;1.40;;;;;;;21.60;34.81;98748.22;5074253;28;20033;-82
2021/09/22 09:03:42;;;;;;;1.65;1.45;;;;;;;21.97;34.68;98751.34;5054434;28;20037;-82
2021/09/22 09:06:33;;;;;;;2.33;1.42;;;;;;;22.49;34.69;98749.56;5055204;28;20029;-82
2021/09/22 09:09:00;;;;;;;1.20;1.10;;;;;;;23.28;32.83;98752.28;5055094;28;20029;-82
2021/09/22 09:11:32;;;;;;;1.65;1.27;;;;;;;25.19;29.79;98753.69;5064575;28;20024;-81
2021/09/22 09:14:02;;;;;;;1.40;1.30;;;;;;;23.26;32.73;98745.50;5074572;28;20082;-82
2021/09/22 09:16:38;;;;;;;1.60;1.10;;;;;;;24.13;31.98;98745.91;5074406;28;20109;-82
2021/09/22 09:19:16;;;;;;;2.72;1.17;;;;;;;25.02;29.60;98754.75;5078853;28;20024;-82
2021/09/22 09:22:02;;;;;;;1.40;1.27;;;;;;;24.93;30.45;98751.69;5077346;28;20020;-82
2021/09/22 09:24:40;;;;;;;1.83;1.60;;;;;;;23.69;32.01;98751.53;5074434;28;20064;-82
2021/09/22 09:27:30;;;;;;;2.50;1.90;;;;;;;24.88;31.33;98757.00;5073773;28;20021;-82
2021/09/22 09:29:57;;;;;;;1.45;1.33;;;;;;;25.99;28.80;98747.09;5073610;28;20041;-82
2021/09/22 09:32:31;;;;;;;1.80;1.58;;;;;;;26.63;28.59;98750.22;5072795;28;20127;-82
2021/09/22 09:35:00;;;;;;;1.88;1.30;;;;;;;25.33;30.38;98745.03;5073888;28;20098;-82
2021/09/22 09:37:31;;;;;;;2.60;1.83;;;;;;;24.58;30.58;98752.94;5073720;28;20036;-82
2021/09/22 09:40:13;;;;;;;6.53;2.08;;;;;;;25.14;30.57;98748.56;5069546;28;20036;-82
2021/09/22 09:42:40;;;;;;;2.05;1.30;;;;;;;25.75;30.08;98748.34;5054153;28;20033;-82
2021/09/22 09:45:06;;;;;;;4.35;2.03;;;;;;;25.36;28.76;98747.00;5063795;28;20033;-82
2021/09/22 09:47:32;;;;;;;2.42;2.05;;;;;;;26.70;28.00;98741.63;5074253;28;20028;-82
2021/09/22 09:50:16;;;;;;;2.20;2.00;;;;;;;26.66;27.18;98743.72;5073362;28;20495;-82
2021/09/22 09:52:50;;;;;;;3.13;2.45;;;;;;;25.25;30.45;98757.59;5064980;28;20408;-82
2021/09/22 09:55:17;;;;;;;5.85;2.83;;;;;;;24.06;31.32;98751.59;5070254;28;20040;-82
2021/09/22 09:57:47;;;;;;;4.13;2.40;;;;;;;24.30;31.20;98752.50;5053620;28;20495;-82
2021/09/22 10:00:24;;;;;;;2.35;2.15;;;;;;;24.11;31.45;98747.53;5053755;28;20508;-83
2021/09/22 10:02:52;;;;;;;3.00;2.70;;;;;;;24.36;31.77;98753.66;5053218;28;20055;-82
2021/09/22 10:05:18;;;;;;;3.40;2.60;;;;;;;26.02;28.94;98749.06;5069175;28;20488;-82
2021/09/22 10:07:48;;;;;;;2.10;1.70;;;;;;;26.47;28.22;98753.00;5070220;28;20035;-82
2021/09/22 10:10:15;;;;;;;2.03;1.60;;;;;;;27.67;25.75;98750.22;5073343;28;20043;-82
2021/09/22 10:12:42;;;;;;;1.75;1.50;;;;;;;27.25;27.07;98745.63;5080665;28;20154;-83
2021/09/22 10:15:10;;;;;;;2.22;2.03;;;;;;;26.83;27.48;98758.69;5079157;28;20487;-82
2021/09/22 10:17:39;;;;;;;2.55;1.95;;;;;;;27.50;26.87;98748.66;5073561;28;20519;-82
2021/09/22 10:20:05;;;;;;;2.05;1.85;;;;;;;26.19;27.73;98745.13;5073091;28;20115;-82
2021/09/22 10:22:31;;;;;;;1.98;1.77;;;;;;;26.81;26.39;98746.25;5073068;28;20036;-82
2021/09/22 10:24:58;;;;;;;1.90;1.70;;;;;;;27.18;26.72;98754.25;5072956;28;20510;-82
2021/09/22 10:27:25;;;;;;;1.05;0.95;;;;;;;28.08;25.58;98753.16;5073151;28;20392;-82
2021/09/22 10:30:13;;;;;;;1.83;1.67;;;;;;;27.54;25.22;98752.16;5072617;28;20043;-82
2021/09/22 10:32:47;;;;;;;2.20;2.00;;;;;;;28.55;24.03;98752.63;5071513;28;20581;-82
2021/09/22 10:35:25;;;;;;;2.95;1.23;;;;;;;29.41;23.96;98747.53;5066644;28;20430;-82
2021/09/22 10:37:56;;;;;;;1.98;1.70;;;;;;;29.00;23.39;98746.84;5053020;28;20037;-82
2021/09/22 10:40:34;;;;;;;;;;;;;;;27.60;24.00;98752.44;5053541;28;20021;-82
2021/09/22 10:43:15;;;;;;;2.25;1.70;;;;;;;28.47;24.92;98748.44;5071823;28;19923;-82
2021/09/22 10:45:45;;;;;;;;;;;;;;;29.17;23.32;98748.34;5058917;28;20033;-82
2021/09/22 10:48:23;;;;;;;1.00;0.90;;;;;;;29.62;23.00;98754.53;5052024;28;19919;-82
2021/09/22 10:51:02;;;;;;;3.63;1.35;;;;;;;29.84;23.38;98754.63;5056534;28;20075;-82
2021/09/22 10:53:31;;;;;;;2.30;2.05;;;;;;;28.81;23.71;98754.31;5072866;28;20070;-82
2021/09/22 10:56:15;;;;;;;1.58;1.48;;;;;;;29.31;23.23;98740.19;5073016;28;20120;-82
2021/09/22 10:58:49;;;;;;;1.95;1.40;;;;;;;29.27;23.90;98750.84;5072804;28;20035;-82
2021/09/22 11:01:39;;;;;;;1.85;1.67;;;;;;;29.33;23.54;98749.03;5071429;28;20024;-83
2021/09/22 11:04:09;;;;;;;1.55;1.00;;;;;;;29.54;24.06;98747.53;5072712;28;20465;-82
2021/09/22 11:06:45;;;;;;;1.20;1.10;;;;;;;29.27;23.30;98758.53;5069633;28;20032;-82
2021/09/22 11:09:17;;;;;;;2.40;1.33;;;;;;;28.12;25.26;98753.09;5084129;28;20074;-82
2021/09/22 11:11:55;;;;;;;2.35;1.50;;;;;;;28.26;25.07;98757.53;5072897;28;20063;-82
2021/09/22 11:14:42;;;;;;;2.65;1.67;;;;;;;28.08;24.61;98755.19;5072412;28;20099;-82
2021/09/22 11:17:26;;;;;;;1.70;1.60;;;;;;;27.00;25.47;98751.06;5072667;28;20484;-82
2021/09/22 11:19:55;;;;;;;1.92;1.73;;;;;;;26.65;27.03;98753.41;5073011;28;20025;-82
2021/09/22 11:22:24;;;;;;;4.07;1.55;;;;;;;26.90;26.51;98757.72;5072650;28;20085;-82
2021/09/22 11:24:54;;;;;;;1.33;1.23;;;;;;;27.72;26.01;98757.38;5071974;28;20085;-83
2021/09/22 11:27:22;;;;;;;2.85;1.20;;;;;;;28.59;24.77;98753.38;5070641;28;20051;-82
2021/09/22 11:29:53;;;;;;;1.13;1.02;;;;;;;28.45;24.59;98751.72;5084180;28;20040;-82
2021/09/22 11:32:29;;;;;;;;;;;;;;;27.26;25.14;98755.66;5072044;28;20047;-83
2021/09/22 11:35:07;;;;;;;2.63;1.20;;;;;;;27.39;26.17;98757.38;5072145;28;19920;-82
2021/09/22 11:37:38;;;;;;;1.95;1.48;;;;;;;27.36;26.21;98754.59;5071533;28;20484;-81